createdAt,value
2017-11-27T00:00:57.487Z,4.80
2017-11-27T00:03:24.252Z,5.57
2017-11-27T00:05:51.043Z,6.10
2017-11-27T00:08:17.795Z,5.27
2017-11-27T00:10:45.116Z,5.30
2017-11-27T00:13:11.839Z,5.13
2017-11-27T00:15:39.071Z,5.00
2017-11-27T00:18:05.820Z,5.77
2017-11-27T00:20:32.629Z,5.70
2017-11-27T00:22:59.403Z,5.60
2017-11-27T00:25:26.163Z,4.80
2017-11-27T00:27:52.941Z,5.40
2017-11-27T00:30:19.717Z,5.60
2017-11-27T00:32:46.470Z,6.03
2017-11-27T00:35:13.236Z,5.37
2017-11-27T00:37:40.015Z,6.47
2017-11-27T00:40:06.731Z,5.93
2017-11-27T00:42:33.600Z,6.10
2017-11-27T00:45:00.348Z,5.77
2017-11-27T00:47:27.179Z,5.33
2017-11-27T00:49:53.920Z,5.90
2017-11-27T00:52:20.691Z,6.50
2017-11-27T00:54:47.478Z,6.07
2017-11-27T00:57:14.240Z,6.37
2017-11-27T00:59:40.978Z,6.10
2017-11-27T01:02:07.743Z,7.10
2017-11-27T01:04:34.484Z,7.20
2017-11-27T01:07:01.320Z,6.67
2017-11-27T01:09:28.927Z,7.40
2017-11-27T01:11:55.676Z,8.23
2017-11-27T01:14:22.436Z,6.50
2017-11-27T01:16:49.243Z,6.90
2017-11-27T01:19:15.982Z,7.57
2017-11-27T01:21:42.727Z,6.80
2017-11-27T01:24:09.519Z,6.70
2017-11-27T01:26:36.300Z,6.10
2017-11-27T01:29:03.030Z,6.97
2017-11-27T01:31:29.817Z,6.60
2017-11-27T01:33:56.551Z,6.87
2017-11-27T01:36:23.316Z,7.27
2017-11-27T01:38:50.077Z,7.53
2017-11-27T01:41:16.816Z,7.70
2017-11-27T01:43:43.597Z,8.00
2017-11-27T01:46:10.353Z,9.00
2017-11-27T01:48:37.180Z,8.50
2017-11-27T01:51:03.922Z,7.87
2017-11-27T01:53:30.677Z,8.17
2017-11-27T01:55:57.408Z,7.70
2017-11-27T01:58:24.189Z,7.47
2017-11-27T02:00:50.924Z,7.93
2017-11-27T02:03:17.793Z,7.73
2017-11-27T02:05:44.626Z,6.83
2017-11-27T02:08:11.422Z,6.40
2017-11-27T02:10:38.224Z,6.57
2017-11-27T02:13:05.005Z,6.20
2017-11-27T02:15:31.792Z,6.33
2017-11-27T02:17:58.584Z,5.57
2017-11-27T02:20:25.368Z,6.00
2017-11-27T02:22:52.138Z,5.00
2017-11-27T02:25:18.882Z,5.73
2017-11-27T02:27:45.740Z,5.23
2017-11-27T02:30:12.484Z,5.00
2017-11-27T02:32:39.301Z,5.40
2017-11-27T02:35:06.099Z,4.70
2017-11-27T02:37:32.850Z,5.27
2017-11-27T02:39:59.623Z,4.70
2017-11-27T02:42:26.387Z,4.63
2017-11-27T02:44:53.153Z,4.53
2017-11-27T02:47:19.943Z,4.63
2017-11-27T02:49:46.683Z,4.90
2017-11-27T02:52:13.479Z,4.03
2017-11-27T02:54:40.247Z,4.20
2017-11-27T02:57:07.056Z,4.83
2017-11-27T02:59:33.789Z,4.80
2017-11-27T03:02:00.574Z,3.60
2017-11-27T03:04:27.294Z,4.03
2017-11-27T03:06:54.091Z,4.33
2017-11-27T03:09:20.865Z,4.20
2017-11-27T03:11:47.763Z,4.10
2017-11-27T03:14:14.496Z,4.37
2017-11-27T03:16:41.352Z,4.03
2017-11-27T03:19:08.130Z,4.40
2017-11-27T03:21:34.882Z,3.70
2017-11-27T03:24:01.617Z,4.30
2017-11-27T03:26:28.363Z,4.67
2017-11-27T03:28:55.168Z,3.93
2017-11-27T03:31:21.899Z,4.90
2017-11-27T03:33:48.693Z,4.70
2017-11-27T03:36:15.479Z,4.37
2017-11-27T03:38:42.230Z,4.30
2017-11-27T03:41:08.991Z,4.23
2017-11-27T03:43:35.770Z,4.30
2017-11-27T03:46:02.561Z,4.37
2017-11-27T03:48:29.279Z,4.80
2017-11-27T03:50:56.058Z,4.80
2017-11-27T03:53:22.858Z,5.40
2017-11-27T03:55:49.617Z,4.63
2017-11-27T03:58:16.385Z,4.97
2017-11-27T04:00:43.114Z,4.70
2017-11-27T04:03:09.897Z,4.93
2017-11-27T04:05:36.666Z,4.50
2017-11-27T04:08:03.437Z,5.17
2017-11-27T04:10:30.249Z,5.17
2017-11-27T04:12:56.978Z,4.60
2017-11-27T04:15:23.786Z,4.90
2017-11-27T04:17:50.506Z,4.57
2017-11-27T04:20:17.288Z,4.90
2017-11-27T04:22:44.058Z,4.40
2017-11-27T04:25:10.834Z,4.50
2017-11-27T04:27:37.637Z,4.70
2017-11-27T04:30:04.414Z,4.90
2017-11-27T04:32:31.192Z,4.37
2017-11-27T04:34:57.993Z,5.20
2017-11-27T04:37:24.769Z,4.70
2017-11-27T04:39:51.553Z,4.60
2017-11-27T04:42:18.330Z,5.20
2017-11-27T04:44:45.093Z,5.10
2017-11-27T04:47:11.944Z,4.40
2017-11-27T04:49:38.708Z,4.30
2017-11-27T04:52:05.456Z,5.20
2017-11-27T04:54:32.231Z,5.13
2017-11-27T04:56:58.976Z,5.03
2017-11-27T04:59:25.805Z,4.77
2017-11-27T05:01:52.656Z,4.80
2017-11-27T05:04:19.398Z,5.27
2017-11-27T05:06:46.187Z,4.97
2017-11-27T05:09:12.942Z,4.67
2017-11-27T05:11:39.746Z,4.97
2017-11-27T05:14:06.489Z,5.60
2017-11-27T05:16:33.269Z,4.50
2017-11-27T05:19:00.024Z,4.70
2017-11-27T05:21:26.745Z,4.47
2017-11-27T05:23:53.537Z,5.30
2017-11-27T05:26:20.289Z,4.73
2017-11-27T05:28:47.062Z,5.10
2017-11-27T05:31:13.824Z,4.37
2017-11-27T05:33:40.589Z,5.07
2017-11-27T05:36:08.447Z,4.93
2017-11-27T05:38:35.211Z,4.70
2017-11-27T05:41:02.003Z,4.60
2017-11-27T05:43:28.743Z,4.57
2017-11-27T05:45:55.540Z,4.70
2017-11-27T05:48:22.327Z,4.97
2017-11-27T05:50:49.102Z,4.87
2017-11-27T05:53:15.833Z,4.33
2017-11-27T05:55:42.618Z,4.50
2017-11-27T05:58:09.363Z,4.80
2017-11-27T06:00:36.225Z,4.27
2017-11-27T06:03:03.034Z,4.53
2017-11-27T06:05:29.816Z,5.20
2017-11-27T06:07:56.546Z,4.70
2017-11-27T06:10:23.324Z,4.60
2017-11-27T06:12:50.125Z,4.20
2017-11-27T06:15:16.874Z,4.20
2017-11-27T06:17:43.651Z,3.70
2017-11-27T06:20:10.392Z,4.27
2017-11-27T06:22:37.149Z,3.87
2017-11-27T06:25:03.946Z,3.40
2017-11-27T06:27:30.698Z,4.00
2017-11-27T06:29:57.522Z,3.83
2017-11-27T06:32:24.295Z,3.43
2017-11-27T06:34:51.025Z,3.33
2017-11-27T06:37:18.306Z,4.47
2017-11-27T06:39:45.088Z,3.47
2017-11-27T06:42:11.867Z,4.13
2017-11-27T06:44:38.649Z,3.87
2017-11-27T06:47:05.393Z,3.30
2017-11-27T06:49:32.149Z,3.63
2017-11-27T06:51:58.920Z,3.60
2017-11-27T06:54:25.695Z,4.77
2017-11-27T06:56:52.482Z,3.80
2017-11-27T06:59:19.274Z,4.73
2017-11-27T07:01:46.052Z,3.73
2017-11-27T07:04:12.792Z,4.20
2017-11-27T07:06:39.568Z,4.30
2017-11-27T07:09:06.305Z,4.60
2017-11-27T07:11:33.046Z,4.30
2017-11-27T07:13:59.810Z,4.00
2017-11-27T07:16:26.557Z,4.60
2017-11-27T07:18:53.319Z,3.73
2017-11-27T07:21:20.203Z,4.27
2017-11-27T07:23:46.944Z,4.40
2017-11-27T07:26:13.716Z,4.37
2017-11-27T07:28:40.459Z,4.23
2017-11-27T07:31:07.262Z,3.40
2017-11-27T07:33:34.096Z,4.00
2017-11-27T07:36:00.823Z,4.40
2017-11-27T07:38:33.173Z,3.90
2017-11-27T07:40:59.930Z,3.97
2017-11-27T07:43:26.695Z,4.10
2017-11-27T07:45:53.464Z,7.00
2017-11-27T07:48:20.239Z,4.10
2017-11-27T07:50:46.999Z,4.53
2017-11-27T07:53:13.747Z,3.70
2017-11-27T07:55:40.514Z,3.87
2017-11-27T07:58:07.232Z,3.37
2017-11-27T08:00:34.108Z,3.73
2017-11-27T08:03:00.827Z,3.50
2017-11-27T08:05:27.634Z,4.07
2017-11-27T08:07:54.380Z,3.20
2017-11-27T08:10:21.149Z,3.00
2017-11-27T08:12:47.913Z,3.37
2017-11-27T08:15:14.650Z,3.07
2017-11-27T08:17:41.410Z,3.00
2017-11-27T08:20:08.165Z,3.20
2017-11-27T08:22:34.892Z,2.90
2017-11-27T08:25:01.662Z,2.73
2017-11-27T08:27:28.437Z,3.30
2017-11-27T08:29:55.192Z,2.70
2017-11-27T08:32:21.978Z,2.87
2017-11-27T08:34:48.728Z,3.80
2017-11-27T08:37:15.452Z,2.90
2017-11-27T08:39:42.295Z,2.83
2017-11-27T08:42:09.059Z,2.53
2017-11-27T08:44:35.931Z,3.53
2017-11-27T08:47:02.728Z,2.87
2017-11-27T08:49:29.480Z,3.47
2017-11-27T08:51:56.207Z,3.00
2017-11-27T08:54:22.993Z,2.33
2017-11-27T08:56:49.732Z,2.80
2017-11-27T08:59:16.546Z,3.10
2017-11-27T09:01:43.274Z,2.80
2017-11-27T09:04:10.019Z,2.73
2017-11-27T09:06:36.814Z,3.13
2017-11-27T09:09:03.547Z,3.03
2017-11-27T09:11:30.278Z,2.53
2017-11-27T09:13:57.050Z,3.10
2017-11-27T09:16:23.803Z,2.90
2017-11-27T09:18:50.583Z,2.97
2017-11-27T09:21:17.368Z,2.90
2017-11-27T09:23:44.130Z,2.27
2017-11-27T09:26:10.913Z,2.77
2017-11-27T09:28:37.692Z,2.93
2017-11-27T09:31:04.479Z,2.17
2017-11-27T09:33:31.298Z,2.30
2017-11-27T09:35:58.035Z,2.57
2017-11-27T09:38:24.797Z,2.93
2017-11-27T09:40:51.590Z,2.63
2017-11-27T09:43:18.361Z,1.90
2017-11-27T09:45:45.128Z,2.10
2017-11-27T09:48:11.871Z,2.07
2017-11-27T09:50:38.663Z,3.17
2017-11-27T09:53:05.439Z,2.27
2017-11-27T09:55:32.206Z,2.37
2017-11-27T09:57:58.958Z,2.63
2017-11-27T10:00:25.724Z,2.90
2017-11-27T10:02:52.448Z,2.50
2017-11-27T10:05:19.207Z,2.30
2017-11-27T10:07:45.956Z,2.00
2017-11-27T10:10:12.773Z,1.83
2017-11-27T10:12:39.504Z,2.67
2017-11-27T10:15:06.347Z,2.27
2017-11-27T10:17:33.124Z,2.80
2017-11-27T10:19:59.880Z,2.10
2017-11-27T10:22:26.679Z,2.03
2017-11-27T10:24:53.452Z,2.20
2017-11-27T10:27:20.213Z,2.77
2017-11-27T10:29:46.973Z,2.30
2017-11-27T10:32:13.750Z,2.27
2017-11-27T10:34:41.251Z,2.20
2017-11-27T10:37:08.034Z,2.30
2017-11-27T10:39:34.778Z,2.27
2017-11-27T10:42:01.551Z,2.17
2017-11-27T10:44:28.291Z,2.07
2017-11-27T10:46:55.080Z,2.20
2017-11-27T10:49:21.806Z,2.60
2017-11-27T10:51:48.581Z,2.30
2017-11-27T10:54:15.346Z,2.87
2017-11-27T10:56:42.103Z,2.50
2017-11-27T10:59:08.867Z,2.17
2017-11-27T11:01:35.619Z,2.30
2017-11-27T11:04:02.341Z,2.20
2017-11-27T11:06:29.119Z,2.33
2017-11-27T11:08:55.856Z,1.93
2017-11-27T11:11:22.672Z,2.67
2017-11-27T11:13:49.451Z,2.50
2017-11-27T11:16:16.173Z,1.97
2017-11-27T11:18:42.944Z,2.33
2017-11-27T11:21:10.614Z,2.00
2017-11-27T11:23:37.380Z,2.30
2017-11-27T11:26:04.119Z,2.30
2017-11-27T11:28:30.932Z,2.00
2017-11-27T11:30:57.725Z,2.60
2017-11-27T11:33:24.509Z,2.67
2017-11-27T11:35:51.284Z,2.83
2017-11-27T11:38:18.097Z,2.30
2017-11-27T11:40:44.873Z,2.80
2017-11-27T11:43:11.671Z,2.33
2017-11-27T11:45:38.412Z,2.67
2017-11-27T11:48:05.154Z,2.00
2017-11-27T11:50:31.932Z,3.47
2017-11-27T11:52:58.642Z,2.13
2017-11-27T11:55:25.390Z,1.67
2017-11-27T11:57:52.164Z,1.90
2017-11-27T12:00:18.893Z,2.17
2017-11-27T12:02:45.699Z,1.70
2017-11-27T12:05:12.436Z,2.00
2017-11-27T12:07:39.192Z,1.90
2017-11-27T12:10:05.929Z,1.70
2017-11-27T12:12:32.822Z,2.10
2017-11-27T12:14:59.613Z,1.90
2017-11-27T12:17:26.409Z,1.90
2017-11-27T12:19:53.170Z,1.90
2017-11-27T12:22:19.914Z,2.50
2017-11-27T12:24:46.733Z,1.90
2017-11-27T12:27:13.495Z,2.27
2017-11-27T12:29:40.283Z,1.73
2017-11-27T12:32:07.020Z,1.90
2017-11-27T12:34:33.756Z,2.13
2017-11-27T12:37:00.609Z,2.10
2017-11-27T12:39:27.416Z,1.90
2017-11-27T12:41:54.172Z,2.23
2017-11-27T12:44:20.948Z,2.20
2017-11-27T12:46:47.672Z,2.33
2017-11-27T12:49:14.438Z,2.40
2017-11-27T12:51:41.195Z,1.90
2017-11-27T12:54:07.923Z,2.30
2017-11-27T12:56:34.704Z,2.60
2017-11-27T12:59:01.541Z,2.50
2017-11-27T13:01:28.301Z,2.33
2017-11-27T13:03:55.127Z,2.70
2017-11-27T13:06:21.887Z,2.17
2017-11-27T13:08:48.644Z,2.37
2017-11-27T13:11:15.408Z,3.43
2017-11-27T13:13:42.184Z,2.80
2017-11-27T13:16:08.925Z,2.10
2017-11-27T13:18:35.691Z,2.23
2017-11-27T13:21:02.479Z,2.17
2017-11-27T13:23:29.245Z,2.20
2017-11-27T13:25:55.999Z,1.97
2017-11-27T13:28:22.756Z,2.10
2017-11-27T13:30:49.570Z,2.77
2017-11-27T13:33:16.360Z,1.77
2017-11-27T13:35:43.125Z,4.00
2017-11-27T13:38:09.865Z,2.03
2017-11-27T13:40:36.671Z,2.00
2017-11-27T13:43:03.453Z,1.90
2017-11-27T13:45:30.202Z,2.60
2017-11-27T13:47:56.970Z,2.17
2017-11-27T13:50:23.757Z,2.60
2017-11-27T13:52:54.116Z,2.30
2017-11-27T13:55:21.564Z,1.97
2017-11-27T13:57:48.349Z,2.30
2017-11-27T14:00:15.106Z,2.10
2017-11-27T14:02:41.866Z,2.73
2017-11-27T14:05:10.602Z,2.23
2017-11-27T14:07:37.382Z,2.23
2017-11-27T14:12:38.055Z,2.00
2017-11-27T14:15:05.108Z,2.33
2017-11-27T14:17:31.856Z,1.83
2017-11-27T14:19:58.659Z,2.03
2017-11-27T14:22:26.460Z,2.20
2017-11-27T14:24:53.250Z,1.83
2017-11-27T14:27:20.064Z,2.47
2017-11-27T14:29:46.913Z,2.10
2017-11-27T14:32:13.669Z,2.10
2017-11-27T14:34:40.455Z,2.37
2017-11-27T14:37:07.295Z,2.30
2017-11-27T14:39:34.246Z,2.27
2017-11-27T14:42:01.208Z,2.10
2017-11-27T14:44:27.944Z,1.90
2017-11-27T14:46:54.687Z,2.70
2017-11-27T14:49:21.466Z,2.10
2017-11-27T14:51:48.230Z,1.80
2017-11-27T14:54:15.008Z,1.90
2017-11-27T14:56:41.797Z,1.90
2017-11-27T14:59:08.591Z,2.30
2017-11-27T15:01:35.332Z,2.30
2017-11-27T15:04:02.136Z,2.47
2017-11-27T15:06:28.860Z,2.23
2017-11-27T15:08:55.612Z,2.53
2017-11-27T15:11:22.397Z,2.60
2017-11-27T15:13:49.144Z,3.10
2017-11-27T15:16:15.859Z,2.07
2017-11-27T15:18:42.616Z,2.30
2017-11-27T15:21:09.336Z,2.37
2017-11-27T15:23:36.089Z,2.20
2017-11-27T15:26:02.844Z,2.00
2017-11-27T15:28:29.664Z,2.20
2017-11-27T15:30:56.440Z,2.80
2017-11-27T15:33:23.172Z,1.80
2017-11-27T15:35:49.921Z,2.33
2017-11-27T15:38:16.682Z,2.53
2017-11-27T15:40:43.417Z,1.87
2017-11-27T15:43:10.185Z,2.13
2017-11-27T15:45:36.932Z,1.97
2017-11-27T15:48:03.681Z,2.17
2017-11-27T15:50:30.469Z,1.97
2017-11-27T15:52:57.198Z,1.50
2017-11-27T15:55:23.914Z,1.80
2017-11-27T15:57:50.688Z,1.20
2017-11-27T16:00:17.447Z,1.70
2017-11-27T16:02:44.183Z,1.63
2017-11-27T16:05:10.930Z,2.10
2017-11-27T16:07:37.725Z,1.83
2017-11-27T16:10:04.479Z,1.90
2017-11-27T16:12:31.275Z,1.47
2017-11-27T16:14:58.022Z,1.77
2017-11-27T16:17:24.799Z,1.47
2017-11-27T16:19:51.599Z,2.10
2017-11-27T16:22:18.343Z,1.67
2017-11-27T16:24:45.164Z,2.27
2017-11-27T16:27:11.933Z,1.57
2017-11-27T16:29:38.749Z,1.60
2017-11-27T16:32:05.508Z,1.90
2017-11-27T16:34:32.248Z,2.10
2017-11-27T16:36:59.782Z,2.20
2017-11-27T16:39:27.104Z,2.60
2017-11-27T16:41:53.838Z,1.93
2017-11-27T16:44:20.620Z,1.80
2017-11-27T16:46:47.362Z,2.33
2017-11-27T16:49:14.152Z,1.57
2017-11-27T16:51:40.933Z,2.60
2017-11-27T16:54:07.796Z,1.80
2017-11-27T16:56:34.584Z,2.03
2017-11-27T16:59:01.452Z,2.20
2017-11-27T17:01:28.226Z,2.30
2017-11-27T17:03:55.002Z,1.83
2017-11-27T17:06:21.821Z,2.37
2017-11-27T17:08:48.564Z,1.90
2017-11-27T17:11:15.326Z,1.67
2017-11-27T17:13:42.107Z,2.23
2017-11-27T17:16:08.900Z,1.70
2017-11-27T17:18:35.640Z,2.10
2017-11-27T17:21:02.394Z,1.63
2017-11-27T17:23:29.199Z,2.20
2017-11-27T17:25:55.937Z,1.63
2017-11-27T17:28:22.720Z,2.03
2017-11-27T17:30:49.536Z,2.13
2017-11-27T17:33:16.262Z,1.77
2017-11-27T17:35:43.019Z,1.70
2017-11-27T17:38:09.930Z,1.70
2017-11-27T17:40:36.698Z,2.03
2017-11-27T17:43:03.515Z,2.17
2017-11-27T17:45:30.256Z,1.80
2017-11-27T17:47:57.072Z,1.87
2017-11-27T17:50:23.834Z,2.10
2017-11-27T17:52:50.606Z,1.77
2017-11-27T17:55:17.357Z,2.10
2017-11-27T17:57:44.116Z,1.60
2017-11-27T18:00:10.893Z,2.00
2017-11-27T18:02:37.687Z,1.80
2017-11-27T18:05:04.444Z,2.00
2017-11-27T18:07:31.356Z,2.60
2017-11-27T18:09:58.197Z,1.53
2017-11-27T18:12:25.003Z,1.40
2017-11-27T18:14:51.786Z,1.63
2017-11-27T18:17:18.522Z,2.10
2017-11-27T18:19:45.315Z,1.83
2017-11-27T18:22:12.045Z,1.30
2017-11-27T18:24:38.930Z,1.80
2017-11-27T18:27:05.756Z,2.27
2017-11-27T18:29:32.510Z,1.47
2017-11-27T18:31:59.242Z,2.20
2017-11-27T18:34:26.050Z,2.30
2017-11-27T18:36:52.788Z,2.07
2017-11-27T18:39:19.562Z,2.03
2017-11-27T18:41:46.324Z,1.80
2017-11-27T18:44:13.091Z,1.90
2017-11-27T18:46:39.871Z,2.10
2017-11-27T18:49:06.617Z,2.90
2017-11-27T18:51:33.359Z,1.90
2017-11-27T18:54:00.163Z,2.53
2017-11-27T18:56:26.908Z,1.97
2017-11-27T18:58:53.662Z,1.70
2017-11-27T19:01:20.472Z,1.90
2017-11-27T19:03:47.224Z,1.80
2017-11-27T19:06:14.056Z,1.60
2017-11-27T19:08:40.804Z,2.13
2017-11-27T19:11:07.642Z,2.13
2017-11-27T19:13:34.424Z,1.90
2017-11-27T19:16:01.263Z,2.17
2017-11-27T19:18:28.060Z,1.93
2017-11-27T19:20:54.853Z,2.20
2017-11-27T19:23:21.611Z,2.40
2017-11-27T19:25:48.374Z,2.33
2017-11-27T19:28:15.221Z,2.70
2017-11-27T19:30:41.956Z,2.30
2017-11-27T19:33:08.688Z,2.47
2017-11-27T19:35:35.478Z,1.90
2017-11-27T19:38:02.324Z,1.70
2017-11-27T19:40:29.115Z,1.70
2017-11-27T19:42:55.860Z,1.90
2017-11-27T19:45:22.693Z,1.90
2017-11-27T19:47:49.487Z,2.20
2017-11-27T19:50:16.227Z,2.77
2017-11-27T19:52:43.061Z,1.67
2017-11-27T19:55:09.863Z,1.87
2017-11-27T19:57:36.645Z,1.90
2017-11-27T20:00:03.387Z,1.93
2017-11-27T20:02:30.183Z,2.00
2017-11-27T20:04:56.911Z,2.20
2017-11-27T20:07:23.712Z,1.83
2017-11-27T20:09:50.492Z,2.43
2017-11-27T20:12:17.296Z,1.70
2017-11-27T20:14:44.079Z,2.00
2017-11-27T20:17:10.822Z,2.30
2017-11-27T20:19:37.556Z,2.03
2017-11-27T20:22:04.324Z,2.13
2017-11-27T20:24:31.948Z,1.87
2017-11-27T20:26:58.702Z,2.07
2017-11-27T20:29:25.646Z,2.00
2017-11-27T20:31:52.434Z,2.20
2017-11-27T20:34:19.201Z,2.20
2017-11-27T20:36:45.983Z,1.93
2017-11-27T20:39:12.855Z,2.00
2017-11-27T20:41:39.619Z,1.90
2017-11-27T20:44:06.392Z,2.00
2017-11-27T20:46:33.228Z,2.40
2017-11-27T20:48:59.995Z,2.00
2017-11-27T20:51:26.867Z,1.83
2017-11-27T20:53:53.642Z,2.40
2017-11-27T20:56:20.416Z,2.33
2017-11-27T20:58:47.542Z,2.30
2017-11-27T21:01:14.315Z,2.23
2017-11-27T21:03:41.156Z,2.20
2017-11-27T21:06:08.024Z,2.13
2017-11-27T21:08:34.751Z,2.53
2017-11-27T21:11:01.875Z,2.43
2017-11-27T21:13:28.591Z,1.77
2017-11-27T21:15:55.394Z,2.73
2017-11-27T21:18:22.235Z,2.30
2017-11-27T21:20:48.975Z,2.50
2017-11-27T21:23:15.737Z,2.20
2017-11-27T21:25:42.542Z,2.07
2017-11-27T21:28:09.305Z,1.90
2017-11-27T21:30:36.107Z,2.00
2017-11-27T21:33:02.914Z,2.20
2017-11-27T21:35:29.708Z,2.00
2017-11-27T21:37:56.444Z,2.03
2017-11-27T21:40:23.195Z,2.00
2017-11-27T21:42:50.076Z,2.87
2017-11-27T21:45:16.817Z,2.10
2017-11-27T21:47:43.657Z,2.50
2017-11-27T21:50:10.420Z,2.30
2017-11-27T21:52:37.215Z,2.17
2017-11-27T21:55:03.967Z,1.90
2017-11-27T21:57:30.720Z,2.30
2017-11-27T21:59:57.498Z,2.17
2017-11-27T22:02:24.254Z,1.93
2017-11-27T22:04:50.994Z,1.93
2017-11-27T22:07:17.794Z,2.40
2017-11-27T22:09:44.577Z,2.30
2017-11-27T22:12:11.347Z,1.87
2017-11-27T22:14:38.085Z,2.40
2017-11-27T22:17:04.862Z,2.23
2017-11-27T22:19:31.606Z,1.90
2017-11-27T22:21:58.409Z,2.20
2017-11-27T22:24:25.148Z,1.87
2017-11-27T22:26:51.875Z,1.80
2017-11-27T22:29:18.644Z,1.70
2017-11-27T22:31:45.669Z,1.57
2017-11-27T22:34:12.777Z,1.97
2017-11-27T22:36:39.557Z,1.90
2017-11-27T22:39:06.500Z,1.90
2017-11-27T22:41:33.295Z,1.60
2017-11-27T22:44:00.283Z,1.87
2017-11-27T22:46:27.045Z,1.90
2017-11-27T22:48:53.778Z,1.73
2017-11-27T22:51:20.559Z,1.90
2017-11-27T22:53:47.338Z,1.70
2017-11-27T22:56:14.108Z,1.70
2017-11-27T22:58:40.904Z,1.67
2017-11-27T23:01:07.675Z,1.80
2017-11-27T23:03:34.476Z,1.60
2017-11-27T23:06:01.194Z,1.70
2017-11-27T23:08:27.927Z,1.30
2017-11-27T23:10:54.698Z,2.07
2017-11-27T23:13:21.453Z,1.40
2017-11-27T23:15:48.192Z,1.60
2017-11-27T23:18:15.003Z,1.80
2017-11-27T23:20:41.737Z,1.83
2017-11-27T23:23:08.503Z,1.67
2017-11-27T23:25:35.282Z,1.63
2017-11-27T23:28:02.007Z,1.77
2017-11-27T23:30:28.725Z,1.37
2017-11-27T23:32:55.483Z,1.63
2017-11-27T23:35:22.240Z,1.70
2017-11-27T23:37:48.966Z,1.80
2017-11-27T23:40:15.712Z,2.10
2017-11-27T23:42:42.480Z,1.57
2017-11-27T23:45:09.243Z,1.60
2017-11-27T23:47:35.995Z,1.40
2017-11-27T23:50:02.731Z,1.60
2017-11-27T23:52:29.582Z,1.47
2017-11-27T23:54:56.367Z,1.80
2017-11-27T23:57:23.152Z,1.77
2017-11-27T23:59:49.920Z,1.53
